createdAt,value
2019-05-23T00:01:49.158Z,76.80
2019-05-23T00:04:25.470Z,76.80
2019-05-23T00:06:55.293Z,76.80
2019-05-23T00:09:24.530Z,77.00
2019-05-23T00:11:55.617Z,77.30
2019-05-23T00:14:46.727Z,77.60
2019-05-23T00:17:21.031Z,77.90
2019-05-23T00:19:50.581Z,78.20
2019-05-23T00:22:19.901Z,78.50
2019-05-23T00:24:50.595Z,78.90
2019-05-23T00:27:21.871Z,80.30
2019-05-23T00:29:51.543Z,81.20
2019-05-23T00:32:28.468Z,81.70
2019-05-23T00:34:57.180Z,81.80
2019-05-23T00:37:28.915Z,82.20
2019-05-23T00:39:59.149Z,83.00
2019-05-23T00:42:29.954Z,83.40
2019-05-23T00:45:01.164Z,83.70
2019-05-23T00:47:30.430Z,84.50
2019-05-23T00:49:59.237Z,84.20
2019-05-23T00:52:29.334Z,85.40
2019-05-23T00:54:58.271Z,85.40
2019-05-23T00:57:28.596Z,86.30
2019-05-23T00:59:57.803Z,86.50
2019-05-23T01:02:27.760Z,87.00
2019-05-23T01:04:56.387Z,88.50
2019-05-23T01:07:26.007Z,88.60
2019-05-23T01:09:54.878Z,89.10
2019-05-23T01:12:25.351Z,89.20
2019-05-23T01:14:54.782Z,89.40
2019-05-23T01:17:26.020Z,89.00
2019-05-23T01:19:56.731Z,88.80
2019-05-23T01:22:25.643Z,89.20
2019-05-23T01:24:55.906Z,88.70
2019-05-23T01:27:25.162Z,88.60
2019-05-23T01:29:56.111Z,88.70
2019-05-23T01:32:38.714Z,88.30
2019-05-23T01:35:09.199Z,88.90
2019-05-23T01:37:39.545Z,89.20
2019-05-23T01:40:09.031Z,89.30
2019-05-23T01:42:38.614Z,89.30
2019-05-23T01:45:10.183Z,89.70
2019-05-23T01:47:39.226Z,89.50
2019-05-23T01:50:10.809Z,89.20
2019-05-23T01:52:41.903Z,89.50
2019-05-23T01:55:12.015Z,89.40
2019-05-23T01:57:40.625Z,89.90
2019-05-23T02:00:12.194Z,90.00
2019-05-23T02:02:41.766Z,89.90
2019-05-23T02:05:11.830Z,90.00
2019-05-23T02:07:41.749Z,90.00
2019-05-23T02:10:12.534Z,90.00
2019-05-23T02:12:41.231Z,90.00
2019-05-23T02:15:13.039Z,90.00
2019-05-23T02:17:41.818Z,89.90
2019-05-23T02:20:17.206Z,90.10
2019-05-23T02:22:45.754Z,89.90
2019-05-23T02:25:17.008Z,90.00
2019-05-23T02:27:46.978Z,89.70
2019-05-23T02:30:33.373Z,89.20
2019-05-23T02:32:50.341Z,88.70
2019-05-23T02:35:19.624Z,88.50
2019-05-23T02:37:50.326Z,88.80
2019-05-23T02:40:38.265Z,89.00
2019-05-23T02:43:08.547Z,88.80
2019-05-23T02:45:47.596Z,88.40
2019-05-23T02:48:30.870Z,88.50
2019-05-23T02:51:08.917Z,88.40
2019-05-23T02:53:38.988Z,87.90
2019-05-23T02:56:11.832Z,87.80
2019-05-23T02:58:47.899Z,88.20
2019-05-23T03:01:27.014Z,88.40
2019-05-23T03:03:57.322Z,88.90
2019-05-23T03:06:27.475Z,88.80
2019-05-23T03:08:57.353Z,88.50
2019-05-23T03:11:30.751Z,88.30
2019-05-23T03:14:00.474Z,88.20
2019-05-23T03:16:31.849Z,87.70
2019-05-23T03:19:07.164Z,87.80
2019-05-23T03:21:37.761Z,87.80
2019-05-23T03:24:07.546Z,88.30
2019-05-23T03:26:42.243Z,88.20
2019-05-23T03:29:11.618Z,88.00
2019-05-23T03:31:46.359Z,88.00
2019-05-23T03:34:16.703Z,88.00
2019-05-23T03:36:45.865Z,87.70
2019-05-23T03:39:14.874Z,87.40
2019-05-23T03:41:44.923Z,87.40
2019-05-23T03:44:13.771Z,86.80
2019-05-23T03:46:46.543Z,87.20
2019-05-23T03:49:17.126Z,87.40
2019-05-23T03:51:45.976Z,87.30
2019-05-23T03:54:15.489Z,86.90
2019-05-23T03:56:44.145Z,86.80
2019-05-23T03:59:13.153Z,86.50
2019-05-23T04:01:48.592Z,86.70
2019-05-23T04:04:16.307Z,86.60
2019-05-23T04:06:47.576Z,86.20
2019-05-23T04:09:16.452Z,86.30
2019-05-23T04:11:45.475Z,86.30
2019-05-23T04:14:14.410Z,86.20
2019-05-23T04:16:43.118Z,86.30
2019-05-23T04:19:11.836Z,86.00
2019-05-23T04:21:40.932Z,86.20
2019-05-23T04:24:09.788Z,86.00
2019-05-23T04:26:40.146Z,85.50
2019-05-23T04:29:09.944Z,84.70
2019-05-23T04:31:38.624Z,83.70
2019-05-23T04:34:07.966Z,82.10
2019-05-23T04:36:36.600Z,81.00
2019-05-23T04:39:06.797Z,79.90
2019-05-23T04:41:36.205Z,78.00
2019-05-23T04:44:06.341Z,76.90
2019-05-23T04:46:36.235Z,76.60
2019-05-23T04:49:05.286Z,75.90
2019-05-23T04:51:34.960Z,74.50
2019-05-23T04:54:04.539Z,74.10
2019-05-23T04:56:33.321Z,73.70
2019-05-23T04:59:03.775Z,73.50
2019-05-23T05:01:32.919Z,73.60
2019-05-23T05:04:02.285Z,75.10
2019-05-23T05:06:31.816Z,75.40
2019-05-23T05:09:01.581Z,75.60
2019-05-23T05:11:30.705Z,75.60
2019-05-23T05:14:01.906Z,74.60
2019-05-23T05:16:31.423Z,75.30
2019-05-23T05:19:00.321Z,75.30
2019-05-23T05:21:28.980Z,74.90
2019-05-23T05:23:57.823Z,74.60
2019-05-23T05:26:26.858Z,75.00
2019-05-23T05:28:55.838Z,75.00
2019-05-23T05:31:24.955Z,74.80
2019-05-23T05:33:53.955Z,74.70
2019-05-23T05:36:22.847Z,74.50
2019-05-23T05:38:52.233Z,73.70
2019-05-23T05:41:21.535Z,73.40
2019-05-23T05:43:51.290Z,73.30
2019-05-23T05:46:20.627Z,73.20
2019-05-23T05:48:49.665Z,73.30
2019-05-23T05:51:18.416Z,73.50
2019-05-23T05:53:48.317Z,73.30
2019-05-23T05:56:16.978Z,72.70
2019-05-23T05:58:46.068Z,71.40
2019-05-23T06:01:31.121Z,68.70
2019-05-23T06:03:46.622Z,68.60
2019-05-23T06:06:17.914Z,67.80
2019-05-23T06:08:48.235Z,67.90
2019-05-23T06:11:17.843Z,68.00
2019-05-23T06:13:46.620Z,67.20
2019-05-23T06:16:15.422Z,66.10
2019-05-23T06:18:44.685Z,64.30
2019-05-23T06:21:15.200Z,64.10
2019-05-23T06:23:44.398Z,62.50
2019-05-23T06:26:13.162Z,62.80
2019-05-23T06:28:44.953Z,63.40
2019-05-23T06:31:14.215Z,63.30
2019-05-23T06:33:42.905Z,63.30
2019-05-23T06:36:12.353Z,62.70
2019-05-23T06:38:42.943Z,62.40
2019-05-23T06:41:11.964Z,62.30
2019-05-23T06:43:41.179Z,61.90
2019-05-23T06:46:11.147Z,62.00
2019-05-23T06:48:45.408Z,61.40
2019-05-23T06:51:11.174Z,61.50
2019-05-23T06:53:39.880Z,61.70
2019-05-23T06:56:11.079Z,62.20
2019-05-23T06:58:40.147Z,61.20
2019-05-23T07:01:08.954Z,61.10
2019-05-23T07:03:42.779Z,60.70
2019-05-23T07:06:09.119Z,60.80
2019-05-23T07:08:37.723Z,60.70
2019-05-23T07:11:06.682Z,61.20
2019-05-23T07:13:36.207Z,60.90
2019-05-23T07:16:06.112Z,59.80
2019-05-23T07:18:35.208Z,59.70
2019-05-23T07:21:04.111Z,59.10
2019-05-23T07:23:33.055Z,58.20
2019-05-23T07:26:01.717Z,58.10
2019-05-23T07:28:30.535Z,57.70
2019-05-23T07:30:59.507Z,57.60
2019-05-23T07:33:28.065Z,57.30
2019-05-23T07:35:57.003Z,56.10
2019-05-23T07:38:25.617Z,55.80
2019-05-23T07:40:55.141Z,55.80
2019-05-23T07:43:24.103Z,55.80
2019-05-23T07:45:55.575Z,55.60
2019-05-23T07:48:24.222Z,56.10
2019-05-23T07:50:53.173Z,56.30
2019-05-23T07:53:23.892Z,56.20
2019-05-23T07:55:54.198Z,55.90
2019-05-23T07:58:22.795Z,55.10
2019-05-23T08:00:56.276Z,54.90
2019-05-23T08:03:28.665Z,54.60
2019-05-23T08:05:56.522Z,55.30
2019-05-23T08:08:25.775Z,55.20
2019-05-23T08:10:54.417Z,54.60
2019-05-23T08:13:24.868Z,54.60
2019-05-23T08:15:54.081Z,53.40
2019-05-23T08:18:22.967Z,53.10
2019-05-23T08:20:52.005Z,51.80
2019-05-23T08:23:21.262Z,51.60
2019-05-23T08:25:50.453Z,51.20
2019-05-23T08:28:19.851Z,51.00
2019-05-23T08:30:49.758Z,49.40
2019-05-23T08:33:19.722Z,49.50
2019-05-23T08:35:48.380Z,49.30
2019-05-23T08:38:18.942Z,48.90
2019-05-23T08:40:48.181Z,48.20
2019-05-23T08:43:16.776Z,47.60
2019-05-23T08:45:45.920Z,47.40
2019-05-23T08:48:15.020Z,47.20
2019-05-23T08:50:43.812Z,47.70
2019-05-23T08:53:12.380Z,47.00
2019-05-23T08:55:41.339Z,46.00
2019-05-23T08:58:12.348Z,45.90
2019-05-23T09:00:43.022Z,45.50
2019-05-23T09:03:12.948Z,46.20
2019-05-23T09:05:42.905Z,47.50
2019-05-23T09:08:16.370Z,45.00
2019-05-23T09:10:43.285Z,46.20
2019-05-23T09:13:13.786Z,46.20
2019-05-23T09:15:44.197Z,44.90
2019-05-23T09:18:13.668Z,43.90
2019-05-23T09:20:42.966Z,40.70
2019-05-23T09:23:12.360Z,38.90
2019-05-23T09:25:41.264Z,35.70
2019-05-23T09:28:11.475Z,35.20
2019-05-23T09:30:40.089Z,33.60
2019-05-23T09:33:09.422Z,32.60
2019-05-23T09:35:38.405Z,32.40
2019-05-23T09:38:07.167Z,31.30
2019-05-23T09:40:36.668Z,30.00
2019-05-23T09:43:06.274Z,28.90
2019-05-23T09:45:35.176Z,29.20
2019-05-23T09:48:04.618Z,28.60
2019-05-23T09:50:33.596Z,29.40
2019-05-23T09:53:02.374Z,28.90
2019-05-23T09:55:31.635Z,28.10
2019-05-23T09:58:00.295Z,27.50
2019-05-23T10:00:30.830Z,26.40
2019-05-23T10:03:01.126Z,25.90
2019-05-23T10:05:41.588Z,24.70
2019-05-23T10:08:00.501Z,24.40
2019-05-23T10:10:30.094Z,23.40
2019-05-23T10:12:58.777Z,21.80
2019-05-23T10:15:39.911Z,21.10
2019-05-23T10:18:19.310Z,20.90
2019-05-23T10:20:48.471Z,21.80
2019-05-23T10:23:17.353Z,20.80
2019-05-23T10:25:46.356Z,20.30
2019-05-23T10:28:16.049Z,20.50
2019-05-23T10:30:44.996Z,20.30
2019-05-23T10:33:14.211Z,19.80
2019-05-23T10:35:59.022Z,19.60
2019-05-23T10:38:13.694Z,19.30
2019-05-23T10:40:42.932Z,19.40
2019-05-23T10:43:12.376Z,18.90
2019-05-23T10:45:41.109Z,18.10
2019-05-23T10:48:11.993Z,17.50
2019-05-23T10:50:44.836Z,17.40
2019-05-23T10:53:11.281Z,17.60
2019-05-23T10:55:39.987Z,17.80
2019-05-23T10:58:09.254Z,17.40
2019-05-23T11:00:39.846Z,17.90
2019-05-23T11:03:09.606Z,17.60
2019-05-23T11:05:38.490Z,17.70
2019-05-23T11:08:08.614Z,18.10
2019-05-23T11:10:37.557Z,17.50
2019-05-23T11:13:06.430Z,16.70
2019-05-23T11:15:35.439Z,16.70
2019-05-23T11:18:04.979Z,16.30
2019-05-23T11:20:36.137Z,16.00
2019-05-23T11:23:06.005Z,16.40
2019-05-23T11:25:36.783Z,15.60
2019-05-23T11:28:05.738Z,15.80
2019-05-23T11:30:42.346Z,15.70
2019-05-23T11:33:12.570Z,15.20
2019-05-23T11:35:42.172Z,15.30
2019-05-23T11:38:11.338Z,15.20
2019-05-23T11:40:40.195Z,14.70
2019-05-23T11:43:09.016Z,14.70
2019-05-23T11:45:46.065Z,14.80
2019-05-23T11:48:15.943Z,15.10
2019-05-23T11:50:43.544Z,14.70
2019-05-23T11:53:12.214Z,14.40
2019-05-23T11:55:42.046Z,14.30
2019-05-23T11:58:10.862Z,14.20
2019-05-23T12:00:52.696Z,14.00
2019-05-23T12:03:21.784Z,14.10
2019-05-23T12:05:53.239Z,14.10
2019-05-23T12:08:21.930Z,14.10
2019-05-23T12:10:50.623Z,14.30
2019-05-23T12:13:21.326Z,14.30
2019-05-23T12:15:50.555Z,14.10
2019-05-23T12:18:19.193Z,13.70
2019-05-23T12:20:48.009Z,14.00
2019-05-23T12:23:17.695Z,13.20
2019-05-23T12:25:46.969Z,13.70
2019-05-23T12:28:16.105Z,13.80
2019-05-23T12:30:45.555Z,14.20
2019-05-23T12:33:14.187Z,14.60
2019-05-23T12:35:42.899Z,14.10
2019-05-23T12:38:11.881Z,13.80
2019-05-23T12:40:40.820Z,13.20
2019-05-23T12:43:09.504Z,13.40
2019-05-23T12:45:38.194Z,13.40
2019-05-23T12:48:12.282Z,12.80
2019-05-23T12:50:54.222Z,13.10
2019-05-23T12:53:24.538Z,12.80
2019-05-23T12:55:53.483Z,13.10
2019-05-23T12:58:24.279Z,12.70
2019-05-23T13:00:57.826Z,12.80
2019-05-23T13:03:26.396Z,11.90
2019-05-23T13:06:14.672Z,12.10
2019-05-23T13:08:43.352Z,12.00
2019-05-23T13:11:12.375Z,12.00
2019-05-23T13:13:41.091Z,11.60
2019-05-23T13:16:09.913Z,11.90
2019-05-23T13:18:38.560Z,11.80
2019-05-23T13:21:07.149Z,11.70
2019-05-23T13:23:36.050Z,11.40
2019-05-23T13:26:06.245Z,11.80
2019-05-23T13:28:34.977Z,11.50
2019-05-23T13:31:03.706Z,11.10
2019-05-23T13:33:33.042Z,11.20
2019-05-23T13:36:02.348Z,11.00
2019-05-23T13:38:31.498Z,11.00
2019-05-23T13:41:00.296Z,10.80
2019-05-23T13:43:29.281Z,11.20
2019-05-23T13:45:58.559Z,10.50
2019-05-23T13:48:28.469Z,11.30
2019-05-23T13:50:57.540Z,10.60
2019-05-23T13:53:26.704Z,10.80
2019-05-23T13:55:56.794Z,10.80
2019-05-23T13:58:25.650Z,11.70
2019-05-23T14:00:54.329Z,11.10
2019-05-23T14:03:23.167Z,10.70
2019-05-23T14:05:51.799Z,10.30
2019-05-23T14:08:20.724Z,9.90
2019-05-23T14:10:49.508Z,9.60
2019-05-23T14:13:18.420Z,10.30
2019-05-23T14:15:49.343Z,10.50
2019-05-23T14:18:19.698Z,10.90
2019-05-23T14:20:48.959Z,11.00
2019-05-23T14:23:24.863Z,11.70
2019-05-23T14:25:54.507Z,11.60
2019-05-23T14:28:24.027Z,11.70
2019-05-23T14:31:09.619Z,11.20
2019-05-23T14:33:40.221Z,11.00
2019-05-23T14:36:13.221Z,11.00
2019-05-23T14:38:42.317Z,11.40
2019-05-23T14:41:11.342Z,11.80
2019-05-23T14:43:40.572Z,12.00
2019-05-23T14:46:11.522Z,11.80
2019-05-23T14:48:44.887Z,11.60
2019-05-23T14:51:15.452Z,11.60
2019-05-23T14:53:51.077Z,11.70
2019-05-23T14:56:21.303Z,12.00
2019-05-23T14:58:50.457Z,12.30
2019-05-23T15:01:19.551Z,12.70
2019-05-23T15:03:48.314Z,14.10
2019-05-23T15:06:17.071Z,15.50
2019-05-23T15:08:50.917Z,16.80
2019-05-23T15:11:16.281Z,18.00
2019-05-23T15:13:45.007Z,19.30
2019-05-23T15:16:14.534Z,20.80
2019-05-23T15:18:43.110Z,21.30
2019-05-23T15:21:12.398Z,22.10
2019-05-23T15:23:41.813Z,22.90
2019-05-23T15:26:22.376Z,23.40
2019-05-23T15:28:41.195Z,25.20
2019-05-23T15:31:11.412Z,25.70
2019-05-23T15:33:40.046Z,27.50
2019-05-23T15:36:08.760Z,29.00
2019-05-23T15:38:39.392Z,29.80
2019-05-23T15:41:08.139Z,30.20
2019-05-23T15:43:37.542Z,30.80
2019-05-23T15:46:06.262Z,31.00
2019-05-23T15:48:34.979Z,31.80
2019-05-23T15:51:04.311Z,32.60
2019-05-23T15:53:48.476Z,33.50
2019-05-23T15:56:35.425Z,33.60
2019-05-23T15:59:20.994Z,35.40
2019-05-23T16:01:54.698Z,36.80
2019-05-23T16:04:24.838Z,37.50
2019-05-23T16:06:53.603Z,38.20
2019-05-23T16:09:30.153Z,38.70
2019-05-23T16:11:54.317Z,39.40
2019-05-23T16:14:25.647Z,40.30
2019-05-23T16:16:57.320Z,41.30
2019-05-23T16:19:26.801Z,42.10
2019-05-23T16:21:56.831Z,43.00
2019-05-23T16:24:26.742Z,43.80
2019-05-23T16:26:56.072Z,44.60
2019-05-23T16:29:25.786Z,45.30
2019-05-23T16:31:54.575Z,45.60
2019-05-23T16:34:23.451Z,45.80
2019-05-23T16:36:52.379Z,45.30
2019-05-23T16:39:21.189Z,45.80
2019-05-23T16:41:49.858Z,45.80
2019-05-23T16:44:18.793Z,45.80
2019-05-23T16:46:47.621Z,46.10
2019-05-23T16:49:16.643Z,46.30
2019-05-23T16:51:45.452Z,46.10
2019-05-23T16:54:15.741Z,46.10
2019-05-23T16:56:52.273Z,46.50
2019-05-23T16:59:26.000Z,46.70
2019-05-23T17:02:05.581Z,46.80
2019-05-23T17:04:40.866Z,47.30
2019-05-23T17:07:13.951Z,47.50
2019-05-23T17:10:06.047Z,47.80
2019-05-23T17:12:36.112Z,48.00
2019-05-23T17:15:11.051Z,48.30
2019-05-23T17:18:02.067Z,48.60
2019-05-23T17:20:31.310Z,48.90
2019-05-23T17:23:17.795Z,49.10
2019-05-23T17:25:57.292Z,49.10
2019-05-23T17:28:30.499Z,49.30
2019-05-23T17:31:07.076Z,49.50
2019-05-23T17:33:37.103Z,50.00
2019-05-23T17:36:06.345Z,50.30
2019-05-23T17:38:35.401Z,50.90
2019-05-23T17:41:04.423Z,51.10
2019-05-23T17:43:34.897Z,51.60
2019-05-23T17:46:03.992Z,52.10
2019-05-23T17:48:32.733Z,53.00
2019-05-23T17:51:01.522Z,53.70
2019-05-23T17:53:30.586Z,54.40
2019-05-23T17:55:59.919Z,55.00
2019-05-23T17:58:28.595Z,55.20
2019-05-23T18:00:58.389Z,55.10
2019-05-23T18:03:27.847Z,55.30
2019-05-23T18:05:56.517Z,55.60
2019-05-23T18:08:29.482Z,56.10
2019-05-23T18:10:59.391Z,56.70
2019-05-23T18:13:29.301Z,56.80
2019-05-23T18:15:58.445Z,57.30
2019-05-23T18:18:27.509Z,57.20
2019-05-23T18:20:56.317Z,57.60
2019-05-23T18:23:25.008Z,58.30
2019-05-23T18:25:53.993Z,58.20
2019-05-23T18:28:22.938Z,58.10
2019-05-23T18:30:53.472Z,57.70
2019-05-23T18:33:24.341Z,58.80
2019-05-23T18:35:54.856Z,59.20
2019-05-23T18:38:24.074Z,58.90
2019-05-23T18:41:02.326Z,59.40
2019-05-23T18:43:24.787Z,60.00
2019-05-23T18:45:55.140Z,60.00
2019-05-23T18:48:24.983Z,60.70
2019-05-23T18:50:54.036Z,60.90
2019-05-23T18:53:23.161Z,61.50
2019-05-23T18:55:52.137Z,61.80
2019-05-23T18:58:21.419Z,62.30
2019-05-23T19:00:53.962Z,62.20
2019-05-23T19:03:23.998Z,62.40
2019-05-23T19:05:53.094Z,63.30
2019-05-23T19:08:22.740Z,63.30
2019-05-23T19:10:56.686Z,63.80
2019-05-23T19:13:26.785Z,64.00
2019-05-23T19:15:55.985Z,63.80
2019-05-23T19:18:26.385Z,64.20
2019-05-23T19:20:56.631Z,64.50
2019-05-23T19:23:26.226Z,64.90
2019-05-23T19:25:55.527Z,65.00
2019-05-23T19:28:25.637Z,65.30
2019-05-23T19:30:55.486Z,65.30
2019-05-23T19:33:25.271Z,65.10
2019-05-23T19:35:54.770Z,65.90
2019-05-23T19:38:23.939Z,66.30
2019-05-23T19:40:53.794Z,66.50
2019-05-23T19:43:24.607Z,66.40
2019-05-23T19:45:53.757Z,66.50
2019-05-23T19:48:23.521Z,66.20
2019-05-23T19:50:53.153Z,67.20
2019-05-23T19:53:21.800Z,66.80
2019-05-23T19:55:50.789Z,66.60
2019-05-23T19:58:19.573Z,67.10
2019-05-23T20:00:49.091Z,66.90
2019-05-23T20:03:18.705Z,66.80
2019-05-23T20:05:58.392Z,66.80
2019-05-23T20:08:27.051Z,66.50
2019-05-23T20:10:56.082Z,66.50
2019-05-23T20:13:24.982Z,66.20
2019-05-23T20:15:53.786Z,66.00
2019-05-23T20:18:22.696Z,66.30
2019-05-23T20:20:51.985Z,66.00
2019-05-23T20:23:20.745Z,65.90
2019-05-23T20:25:49.891Z,66.10
2019-05-23T20:28:19.317Z,66.00
2019-05-23T20:30:52.284Z,66.20
2019-05-23T20:33:21.429Z,66.40
2019-05-23T20:35:50.856Z,66.60
2019-05-23T20:38:19.729Z,66.60
2019-05-23T20:40:48.478Z,67.20
2019-05-23T20:43:17.153Z,67.60
2019-05-23T20:45:46.402Z,67.60
2019-05-23T20:48:15.547Z,67.60
2019-05-23T20:50:45.176Z,67.40
2019-05-23T20:53:13.968Z,68.10
2019-05-23T20:55:42.939Z,68.40
2019-05-23T20:58:11.614Z,68.80
2019-05-23T21:00:59.988Z,68.70
2019-05-23T21:03:29.150Z,68.70
2019-05-23T21:05:58.304Z,69.10
2019-05-23T21:08:27.286Z,69.20
2019-05-23T21:10:56.207Z,69.40
2019-05-23T21:13:24.955Z,69.70
2019-05-23T21:15:53.950Z,69.50
2019-05-23T21:18:22.708Z,69.70
2019-05-23T21:20:51.396Z,69.70
2019-05-23T21:23:20.463Z,69.70
2019-05-23T21:25:51.074Z,70.00
2019-05-23T21:28:19.655Z,71.10
2019-05-23T21:30:48.407Z,70.30
2019-05-23T21:33:17.097Z,70.60
2019-05-23T21:35:45.874Z,70.40
2019-05-23T21:38:14.531Z,70.60
2019-05-23T21:40:45.055Z,71.00
2019-05-23T21:43:14.021Z,71.70
2019-05-23T21:45:43.107Z,72.30
2019-05-23T21:48:12.369Z,72.80
2019-05-23T21:50:41.108Z,73.10
2019-05-23T21:53:09.774Z,73.70
2019-05-23T21:55:42.837Z,74.10
2019-05-23T21:58:13.366Z,74.50
2019-05-23T22:01:01.411Z,74.80
2019-05-23T22:03:32.248Z,75.20
2019-05-23T22:06:01.797Z,75.30
2019-05-23T22:08:30.836Z,75.30
2019-05-23T22:10:59.482Z,75.70
2019-05-23T22:13:28.134Z,76.00
2019-05-23T22:15:59.894Z,76.30
2019-05-23T22:18:28.833Z,76.50
2019-05-23T22:20:57.606Z,77.10
2019-05-23T22:23:26.415Z,77.60
2019-05-23T22:25:55.092Z,78.00
2019-05-23T22:28:24.172Z,78.50
2019-05-23T22:30:52.739Z,78.90
2019-05-23T22:33:22.967Z,79.60
2019-05-23T22:35:51.648Z,79.90
2019-05-23T22:38:20.287Z,80.00
2019-05-23T22:40:49.010Z,81.00
2019-05-23T22:43:21.036Z,81.60
2019-05-23T22:45:48.198Z,81.90
2019-05-23T22:48:16.769Z,82.30
2019-05-23T22:50:45.461Z,82.30
2019-05-23T22:53:14.073Z,82.00
2019-05-23T22:55:42.642Z,82.00
2019-05-23T22:58:11.378Z,81.60
2019-05-23T23:00:42.064Z,81.60
2019-05-23T23:03:10.737Z,81.40
2019-05-23T23:05:39.505Z,81.50
2019-05-23T23:08:08.710Z,81.50
2019-05-23T23:10:37.665Z,81.10
2019-05-23T23:13:06.920Z,81.10
2019-05-23T23:15:36.059Z,80.70
2019-05-23T23:18:05.383Z,80.40
2019-05-23T23:20:34.062Z,80.30
2019-05-23T23:23:02.622Z,80.40
2019-05-23T23:25:31.986Z,80.70
2019-05-23T23:28:00.729Z,80.70
2019-05-23T23:30:46.041Z,80.70
2019-05-23T23:33:15.124Z,80.90
2019-05-23T23:35:43.745Z,81.50
2019-05-23T23:38:12.382Z,81.60
2019-05-23T23:40:41.439Z,81.70
2019-05-23T23:43:10.402Z,82.00
2019-05-23T23:45:57.288Z,82.20
2019-05-23T23:48:44.267Z,82.30
2019-05-23T23:51:30.806Z,82.30
2019-05-23T23:54:17.322Z,82.50
2019-05-23T23:57:04.185Z,82.90
2019-05-23T23:59:32.894Z,83.10
